MMTG/TGZ METAR and TAF weather

Enter ICAO airport designator
Station Type Date Time Source
MMTG METAR 2022/09/26 10:12 UTC NOAA

MMTG 261012Z RTD 13002KT 5SM SCT070 BKN300 22/22 A2986 RMK 60841 8/072 BCFG ARND RTS


Station Type Date Time Source
MMTG Decoded METAR 2022/09/26 10:12 UTC NOAA

Tuxtla Gutierrez, Chis., Mexico (MMTG) 16-45N 093-07W
Sep 26, 2022 - 06:12 AM EDT / 2022.09.26 1012 UTC
Wind: from the SE (130 degrees) at 2 MPH (2 KT):0
Visibility: 5 mile(s):0
Sky conditions: mostly cloudy
Temperature: 71 F (22 C)
Dew Point: 71 F (22 C)
Relative Humidity: 100%
Pressure (altimeter): 29.86 in. Hg (1011 hPa)
ob: MMTG 261012Z RTD 13002KT 5SM SCT070 BKN300 22/22 A2986 RMK 60841 8/072 BCFG ARND RTS
cycle: 10

Station Type Date Time Source
MMTG TAF 2022/09/26 06:51 UTC NOAA

TAF TAF MMTG 260447Z 2606/2706 31005KT P6SM SCT090 SCT250
TEMPO 2611/2615 3SM BR HZ SCT006 BKN010
FM261800 32012KT P6SM SCT025 BKN080 BKN250 PROB40 2623/2703 4SM TSRA BKN020CB
FM270500 30005KT P6SM SCT030 SCT090 BKN250

Example: see airport list